CheckWX is a tool to help pilots better visualize weather data.  It is not intended as a substitute for an official pre-flight weather briefing.

15:14:29 UTC

KMEV METAR
Minden-Tahoe Airport
Minden, Nevada, USA
Current

19 mins ago

KMEV 261455Z AUTO 19011G18KT 10SM SCT038 SCT046 07/01 A2967 RMK AO2
Observed
May-26 @ 14:55 UTC
Wind
  • 190° at 11 KTS
  • Gusting to 18 KTS
Visibility
10 SM
Flight Rules
VFR
Cloud Levels
  • Scattered at 3,800' AGL
  • Scattered at 4,600' AGL
Temperature
C / 45°F
Dewpoint
C / 34°F
Humidity
66%
Altimeter
29.67" Hg
Pressure
1004.72 hPa
Previous

39 mins ago

KMEV 261435Z AUTO 16013G17KT 10SM FEW032 BKN046 06/01 A2967 RMK AO2
Observed
May-26 @ 14:35 UTC
Wind
  • 160° at 13 KTS
  • Gusting to 17 KTS
Visibility
10 SM
Flight Rules
VFR
Cloud Levels
  • Few at 3,200' AGL
  • Broken at 4,600' AGL
Temperature
C / 43°F
Dewpoint
C / 34°F
Humidity
71%
Altimeter
29.67" Hg
Pressure
1004.72 hPa
Previous

59 mins ago

KMEV 261415Z AUTO 16017G21KT 10SM FEW037 BKN046 BKN070 06/01 A2966 RMK AO2
Observed
May-26 @ 14:15 UTC
Wind
  • 160° at 17 KTS
  • Gusting to 21 KTS
Visibility
10 SM
Flight Rules
VFR
Cloud Levels
  • Few at 3,700' AGL
  • Broken at 4,600' AGL
  • Broken at 7,000' AGL
Temperature
C / 43°F
Dewpoint
C / 34°F
Humidity
71%
Altimeter
29.66" Hg
Pressure
1004.42 hPa